sensor_id;sensor_type;location;lat;lon;timestamp;P1;durP1;ratioP1;P2;durP2;ratioP2
2772;SDS011;1394;47.044;15.744;2022-08-01T00:02:09;6.80;;;6.10;;
2772;SDS011;1394;47.044;15.744;2022-08-01T00:04:38;6.63;;;6.00;;
2772;SDS011;1394;47.044;15.744;2022-08-01T00:07:10;6.73;;;6.13;;
2772;SDS011;1394;47.044;15.744;2022-08-01T00:09:38;7.87;;;6.00;;
2772;SDS011;1394;47.044;15.744;2022-08-01T00:12:05;6.33;;;5.73;;
2772;SDS011;1394;47.044;15.744;2022-08-01T00:14:32;6.50;;;5.97;;
2772;SDS011;1394;47.044;15.744;2022-08-01T00:17:00;6.53;;;6.00;;
2772;SDS011;1394;47.044;15.744;2022-08-01T00:19:27;6.30;;;5.70;;
2772;SDS011;1394;47.044;15.744;2022-08-01T00:21:54;7.33;;;6.63;;
2772;SDS011;1394;47.044;15.744;2022-08-01T00:24:23;7.03;;;6.43;;
2772;SDS011;1394;47.044;15.744;2022-08-01T00:26:50;7.40;;;6.70;;
2772;SDS011;1394;47.044;15.744;2022-08-01T00:29:17;6.60;;;6.00;;
2772;SDS011;1394;47.044;15.744;2022-08-01T00:31:44;6.60;;;6.00;;
2772;SDS011;1394;47.044;15.744;2022-08-01T00:34:12;6.47;;;5.87;;
2772;SDS011;1394;47.044;15.744;2022-08-01T00:36:39;5.90;;;5.40;;
2772;SDS011;1394;47.044;15.744;2022-08-01T00:39:06;6.83;;;5.80;;
2772;SDS011;1394;47.044;15.744;2022-08-01T00:41:36;7.10;;;6.50;;
2772;SDS011;1394;47.044;15.744;2022-08-01T00:44:07;7.00;;;6.40;;
2772;SDS011;1394;47.044;15.744;2022-08-01T00:46:34;6.53;;;5.90;;
2772;SDS011;1394;47.044;15.744;2022-08-01T00:49:03;6.63;;;5.77;;
2772;SDS011;1394;47.044;15.744;2022-08-01T00:51:33;8.80;;;6.80;;
2772;SDS011;1394;47.044;15.744;2022-08-01T00:54:01;6.87;;;6.27;;
2772;SDS011;1394;47.044;15.744;2022-08-01T00:56:28;7.10;;;6.10;;
2772;SDS011;1394;47.044;15.744;2022-08-01T00:58:58;6.47;;;5.87;;
2772;SDS011;1394;47.044;15.744;2022-08-01T01:01:25;6.90;;;6.30;;
2772;SDS011;1394;47.044;15.744;2022-08-01T01:03:52;7.60;;;6.80;;
2772;SDS011;1394;47.044;15.744;2022-08-01T01:06:25;8.93;;;7.30;;
2772;SDS011;1394;47.044;15.744;2022-08-01T01:08:55;6.77;;;6.17;;
2772;SDS011;1394;47.044;15.744;2022-08-01T01:11:28;6.67;;;6.17;;
2772;SDS011;1394;47.044;15.744;2022-08-01T01:14:01;6.00;;;5.50;;
2772;SDS011;1394;47.044;15.744;2022-08-01T01:16:31;6.13;;;5.47;;
2772;SDS011;1394;47.044;15.744;2022-08-01T01:19:00;6.40;;;5.80;;
2772;SDS011;1394;47.044;15.744;2022-08-01T01:21:36;6.00;;;5.40;;
2772;SDS011;1394;47.044;15.744;2022-08-01T01:24:11;6.73;;;6.13;;
2772;SDS011;1394;47.044;15.744;2022-08-01T01:26:45;7.33;;;6.03;;
2772;SDS011;1394;47.044;15.744;2022-08-01T01:29:20;7.10;;;6.40;;
2772;SDS011;1394;47.044;15.744;2022-08-01T01:31:48;6.90;;;6.30;;
2772;SDS011;1394;47.044;15.744;2022-08-01T01:34:18;7.90;;;7.20;;
2772;SDS011;1394;47.044;15.744;2022-08-01T01:36:47;6.90;;;6.30;;
2772;SDS011;1394;47.044;15.744;2022-08-01T01:39:15;7.30;;;6.70;;
2772;SDS011;1394;47.044;15.744;2022-08-01T01:41:44;7.10;;;6.40;;
2772;SDS011;1394;47.044;15.744;2022-08-01T01:44:12;6.73;;;6.13;;
2772;SDS011;1394;47.044;15.744;2022-08-01T01:46:41;7.60;;;6.90;;
2772;SDS011;1394;47.044;15.744;2022-08-01T01:49:09;7.20;;;6.50;;
2772;SDS011;1394;47.044;15.744;2022-08-01T01:51:38;7.73;;;7.10;;
2772;SDS011;1394;47.044;15.744;2022-08-01T01:54:06;6.70;;;6.03;;
2772;SDS011;1394;47.044;15.744;2022-08-01T01:56:35;8.00;;;7.30;;
2772;SDS011;1394;47.044;15.744;2022-08-01T01:59:13;6.93;;;6.20;;
2772;SDS011;1394;47.044;15.744;2022-08-01T02:01:43;6.73;;;6.20;;
2772;SDS011;1394;47.044;15.744;2022-08-01T02:04:10;6.87;;;6.27;;
2772;SDS011;1394;47.044;15.744;2022-08-01T02:06:41;7.40;;;6.80;;
2772;SDS011;1394;47.044;15.744;2022-08-01T02:09:09;7.13;;;6.53;;
2772;SDS011;1394;47.044;15.744;2022-08-01T02:11:36;6.70;;;6.20;;
2772;SDS011;1394;47.044;15.744;2022-08-01T02:14:05;7.60;;;5.97;;
2772;SDS011;1394;47.044;15.744;2022-08-01T02:16:34;6.77;;;6.07;;
2772;SDS011;1394;47.044;15.744;2022-08-01T02:19:03;6.90;;;6.30;;
2772;SDS011;1394;47.044;15.744;2022-08-01T02:21:32;8.07;;;7.37;;
2772;SDS011;1394;47.044;15.744;2022-08-01T02:24:06;7.20;;;6.50;;
2772;SDS011;1394;47.044;15.744;2022-08-01T02:26:34;7.03;;;6.33;;
2772;SDS011;1394;47.044;15.744;2022-08-01T02:29:05;6.93;;;6.33;;
2772;SDS011;1394;47.044;15.744;2022-08-01T02:31:34;7.40;;;6.80;;
2772;SDS011;1394;47.044;15.744;2022-08-01T02:34:04;7.40;;;6.80;;
2772;SDS011;1394;47.044;15.744;2022-08-01T02:36:32;7.77;;;6.93;;
2772;SDS011;1394;47.044;15.744;2022-08-01T02:39:00;7.93;;;7.23;;
2772;SDS011;1394;47.044;15.744;2022-08-01T02:41:28;7.63;;;6.93;;
2772;SDS011;1394;47.044;15.744;2022-08-01T02:43:59;8.10;;;7.30;;
2772;SDS011;1394;47.044;15.744;2022-08-01T02:46:28;7.23;;;6.63;;
2772;SDS011;1394;47.044;15.744;2022-08-01T02:48:58;7.80;;;7.20;;
2772;SDS011;1394;47.044;15.744;2022-08-01T02:51:31;7.40;;;6.80;;
2772;SDS011;1394;47.044;15.744;2022-08-01T02:54:01;7.20;;;6.50;;
2772;SDS011;1394;47.044;15.744;2022-08-01T02:56:34;7.97;;;7.17;;
2772;SDS011;1394;47.044;15.744;2022-08-01T02:59:03;7.10;;;6.50;;
2772;SDS011;1394;47.044;15.744;2022-08-01T03:01:32;6.83;;;6.23;;
2772;SDS011;1394;47.044;15.744;2022-08-01T03:04:01;6.90;;;6.13;;
2772;SDS011;1394;47.044;15.744;2022-08-01T03:06:28;6.97;;;6.37;;
2772;SDS011;1394;47.044;15.744;2022-08-01T03:08:58;7.37;;;6.67;;
2772;SDS011;1394;47.044;15.744;2022-08-01T03:11:27;8.90;;;7.40;;
2772;SDS011;1394;47.044;15.744;2022-08-01T03:13:55;7.63;;;6.97;;
2772;SDS011;1394;47.044;15.744;2022-08-01T03:16:24;7.73;;;7.00;;
2772;SDS011;1394;47.044;15.744;2022-08-01T03:18:56;9.27;;;8.17;;
2772;SDS011;1394;47.044;15.744;2022-08-01T03:21:26;7.23;;;6.53;;
2772;SDS011;1394;47.044;15.744;2022-08-01T03:23:55;7.40;;;6.57;;
2772;SDS011;1394;47.044;15.744;2022-08-01T03:26:25;7.37;;;6.77;;
2772;SDS011;1394;47.044;15.744;2022-08-01T03:28:54;7.60;;;7.00;;
2772;SDS011;1394;47.044;15.744;2022-08-01T03:31:22;7.37;;;6.60;;
2772;SDS011;1394;47.044;15.744;2022-08-01T03:33:50;7.70;;;7.00;;
2772;SDS011;1394;47.044;15.744;2022-08-01T03:36:18;7.17;;;6.50;;
2772;SDS011;1394;47.044;15.744;2022-08-01T03:38:48;8.17;;;7.40;;
2772;SDS011;1394;47.044;15.744;2022-08-01T03:41:18;8.20;;;7.00;;
2772;SDS011;1394;47.044;15.744;2022-08-01T03:43:49;7.57;;;6.90;;
2772;SDS011;1394;47.044;15.744;2022-08-01T03:46:21;7.10;;;6.40;;
2772;SDS011;1394;47.044;15.744;2022-08-01T03:48:49;7.37;;;6.70;;
2772;SDS011;1394;47.044;15.744;2022-08-01T03:51:18;8.07;;;7.27;;
2772;SDS011;1394;47.044;15.744;2022-08-01T03:53:45;9.17;;;8.37;;
2772;SDS011;1394;47.044;15.744;2022-08-01T03:56:16;8.67;;;7.97;;
2772;SDS011;1394;47.044;15.744;2022-08-01T03:58:45;7.80;;;7.10;;
2772;SDS011;1394;47.044;15.744;2022-08-01T04:01:14;8.17;;;7.47;;
2772;SDS011;1394;47.044;15.744;2022-08-01T04:03:42;8.40;;;7.80;;
2772;SDS011;1394;47.044;15.744;2022-08-01T04:06:09;9.40;;;7.33;;
2772;SDS011;1394;47.044;15.744;2022-08-01T04:08:39;7.93;;;7.33;;
2772;SDS011;1394;47.044;15.744;2022-08-01T04:11:07;8.63;;;7.93;;
2772;SDS011;1394;47.044;15.744;2022-08-01T04:13:34;8.37;;;7.57;;
2772;SDS011;1394;47.044;15.744;2022-08-01T04:16:03;7.90;;;7.30;;
2772;SDS011;1394;47.044;15.744;2022-08-01T04:18:32;8.27;;;6.80;;
2772;SDS011;1394;47.044;15.744;2022-08-01T04:20:59;7.67;;;6.97;;
2772;SDS011;1394;47.044;15.744;2022-08-01T04:23:26;6.60;;;6.10;;
2772;SDS011;1394;47.044;15.744;2022-08-01T04:25:56;7.00;;;6.37;;
2772;SDS011;1394;47.044;15.744;2022-08-01T04:28:24;8.00;;;7.20;;
2772;SDS011;1394;47.044;15.744;2022-08-01T04:30:52;8.50;;;6.60;;
2772;SDS011;1394;47.044;15.744;2022-08-01T04:33:21;7.70;;;7.00;;
2772;SDS011;1394;47.044;15.744;2022-08-01T04:35:51;7.70;;;7.00;;
2772;SDS011;1394;47.044;15.744;2022-08-01T04:38:19;8.33;;;6.90;;
2772;SDS011;1394;47.044;15.744;2022-08-01T04:40:47;7.07;;;6.47;;
2772;SDS011;1394;47.044;15.744;2022-08-01T04:43:15;6.80;;;6.20;;
2772;SDS011;1394;47.044;15.744;2022-08-01T04:45:47;9.33;;;7.67;;
2772;SDS011;1394;47.044;15.744;2022-08-01T04:48:15;8.83;;;6.57;;
2772;SDS011;1394;47.044;15.744;2022-08-01T04:50:44;7.00;;;6.40;;
2772;SDS011;1394;47.044;15.744;2022-08-01T04:53:13;7.10;;;6.40;;
2772;SDS011;1394;47.044;15.744;2022-08-01T04:55:41;7.30;;;6.60;;
2772;SDS011;1394;47.044;15.744;2022-08-01T04:58:09;7.10;;;6.17;;
2772;SDS011;1394;47.044;15.744;2022-08-01T05:00:36;7.07;;;6.37;;
2772;SDS011;1394;47.044;15.744;2022-08-01T05:03:04;7.00;;;6.10;;
2772;SDS011;1394;47.044;15.744;2022-08-01T05:05:31;7.70;;;6.80;;
2772;SDS011;1394;47.044;15.744;2022-08-01T05:07:59;6.90;;;6.20;;
2772;SDS011;1394;47.044;15.744;2022-08-01T05:10:28;8.27;;;6.20;;
2772;SDS011;1394;47.044;15.744;2022-08-01T05:12:55;7.50;;;6.90;;
2772;SDS011;1394;47.044;15.744;2022-08-01T05:15:23;8.80;;;7.20;;
2772;SDS011;1394;47.044;15.744;2022-08-01T05:17:50;7.87;;;7.27;;
2772;SDS011;1394;47.044;15.744;2022-08-01T05:20:17;8.90;;;7.47;;
2772;SDS011;1394;47.044;15.744;2022-08-01T05:22:45;8.87;;;8.00;;
2772;SDS011;1394;47.044;15.744;2022-08-01T05:25:12;7.87;;;7.17;;
2772;SDS011;1394;47.044;15.744;2022-08-01T05:27:40;7.30;;;6.70;;
2772;SDS011;1394;47.044;15.744;2022-08-01T05:30:10;7.80;;;7.00;;
2772;SDS011;1394;47.044;15.744;2022-08-01T05:32:38;9.20;;;7.20;;
2772;SDS011;1394;47.044;15.744;2022-08-01T05:35:06;7.60;;;6.90;;
2772;SDS011;1394;47.044;15.744;2022-08-01T05:37:34;7.70;;;7.00;;
2772;SDS011;1394;47.044;15.744;2022-08-01T05:40:01;7.80;;;7.10;;
2772;SDS011;1394;47.044;15.744;2022-08-01T05:42:29;7.50;;;6.80;;
2772;SDS011;1394;47.044;15.744;2022-08-01T05:44:58;7.77;;;7.07;;
2772;SDS011;1394;47.044;15.744;2022-08-01T05:47:25;7.83;;;7.00;;
2772;SDS011;1394;47.044;15.744;2022-08-01T05:49:55;8.33;;;7.60;;
2772;SDS011;1394;47.044;15.744;2022-08-01T05:52:22;7.97;;;7.27;;
2772;SDS011;1394;47.044;15.744;2022-08-01T05:54:50;7.73;;;6.93;;
2772;SDS011;1394;47.044;15.744;2022-08-01T05:57:17;7.67;;;7.00;;
2772;SDS011;1394;47.044;15.744;2022-08-01T05:59:47;8.20;;;7.43;;
2772;SDS011;1394;47.044;15.744;2022-08-01T06:02:16;7.70;;;6.90;;
2772;SDS011;1394;47.044;15.744;2022-08-01T06:04:43;8.00;;;7.23;;
2772;SDS011;1394;47.044;15.744;2022-08-01T06:07:11;7.90;;;7.20;;
2772;SDS011;1394;47.044;15.744;2022-08-01T06:09:38;7.90;;;7.20;;
2772;SDS011;1394;47.044;15.744;2022-08-01T06:12:05;7.83;;;7.13;;
2772;SDS011;1394;47.044;15.744;2022-08-01T06:14:33;7.90;;;7.20;;
2772;SDS011;1394;47.044;15.744;2022-08-01T06:17:00;9.17;;;7.80;;
2772;SDS011;1394;47.044;15.744;2022-08-01T06:19:28;8.33;;;6.53;;
2772;SDS011;1394;47.044;15.744;2022-08-01T06:21:56;8.80;;;7.03;;
2772;SDS011;1394;47.044;15.744;2022-08-01T06:24:23;10.83;;;7.10;;
2772;SDS011;1394;47.044;15.744;2022-08-01T06:26:51;8.50;;;6.97;;
2772;SDS011;1394;47.044;15.744;2022-08-01T06:29:19;7.77;;;7.03;;
2772;SDS011;1394;47.044;15.744;2022-08-01T06:31:46;7.70;;;6.80;;
2772;SDS011;1394;47.044;15.744;2022-08-01T06:34:16;6.60;;;6.00;;
2772;SDS011;1394;47.044;15.744;2022-08-01T06:36:45;7.67;;;6.87;;
2772;SDS011;1394;47.044;15.744;2022-08-01T06:39:12;7.00;;;6.40;;
2772;SDS011;1394;47.044;15.744;2022-08-01T06:41:39;7.37;;;6.57;;
2772;SDS011;1394;47.044;15.744;2022-08-01T06:44:07;7.20;;;6.60;;
2772;SDS011;1394;47.044;15.744;2022-08-01T06:46:34;7.40;;;6.70;;
2772;SDS011;1394;47.044;15.744;2022-08-01T06:49:01;6.73;;;6.13;;
2772;SDS011;1394;47.044;15.744;2022-08-01T06:51:29;7.10;;;6.40;;
2772;SDS011;1394;47.044;15.744;2022-08-01T06:53:57;6.90;;;6.30;;
2772;SDS011;1394;47.044;15.744;2022-08-01T06:56:25;6.90;;;5.40;;
2772;SDS011;1394;47.044;15.744;2022-08-01T06:58:52;6.50;;;5.90;;
2772;SDS011;1394;47.044;15.744;2022-08-01T07:01:24;6.13;;;5.63;;
2772;SDS011;1394;47.044;15.744;2022-08-01T07:03:51;7.03;;;6.23;;
2772;SDS011;1394;47.044;15.744;2022-08-01T07:06:19;8.87;;;6.83;;
2772;SDS011;1394;47.044;15.744;2022-08-01T07:08:46;6.93;;;6.30;;
2772;SDS011;1394;47.044;15.744;2022-08-01T07:11:15;6.53;;;5.93;;
2772;SDS011;1394;47.044;15.744;2022-08-01T07:13:43;7.20;;;6.00;;
2772;SDS011;1394;47.044;15.744;2022-08-01T07:16:11;6.60;;;6.10;;
2772;SDS011;1394;47.044;15.744;2022-08-01T07:18:38;8.93;;;6.37;;
2772;SDS011;1394;47.044;15.744;2022-08-01T07:21:06;7.73;;;7.00;;
2772;SDS011;1394;47.044;15.744;2022-08-01T07:23:33;8.27;;;6.70;;
2772;SDS011;1394;47.044;15.744;2022-08-01T07:26:02;7.53;;;6.83;;
2772;SDS011;1394;47.044;15.744;2022-08-01T07:28:31;7.63;;;6.83;;
2772;SDS011;1394;47.044;15.744;2022-08-01T07:30:59;7.03;;;6.30;;
2772;SDS011;1394;47.044;15.744;2022-08-01T07:33:27;6.77;;;6.07;;
2772;SDS011;1394;47.044;15.744;2022-08-01T07:35:54;6.33;;;5.73;;
2772;SDS011;1394;47.044;15.744;2022-08-01T07:38:21;7.50;;;6.00;;
2772;SDS011;1394;47.044;15.744;2022-08-01T07:40:49;7.57;;;6.77;;
2772;SDS011;1394;47.044;15.744;2022-08-01T07:43:20;6.60;;;6.00;;
2772;SDS011;1394;47.044;15.744;2022-08-01T07:45:51;8.80;;;6.67;;
2772;SDS011;1394;47.044;15.744;2022-08-01T07:48:19;6.83;;;6.20;;
2772;SDS011;1394;47.044;15.744;2022-08-01T07:50:49;8.57;;;6.60;;
2772;SDS011;1394;47.044;15.744;2022-08-01T07:53:16;7.00;;;6.40;;
2772;SDS011;1394;47.044;15.744;2022-08-01T07:55:43;6.53;;;5.90;;
2772;SDS011;1394;47.044;15.744;2022-08-01T07:58:11;8.70;;;6.43;;
2772;SDS011;1394;47.044;15.744;2022-08-01T08:00:38;7.00;;;5.77;;
2772;SDS011;1394;47.044;15.744;2022-08-01T08:03:07;8.83;;;8.07;;
2772;SDS011;1394;47.044;15.744;2022-08-01T08:05:37;7.00;;;6.30;;
2772;SDS011;1394;47.044;15.744;2022-08-01T08:08:11;7.10;;;5.90;;
2772;SDS011;1394;47.044;15.744;2022-08-01T08:10:40;6.80;;;6.03;;
2772;SDS011;1394;47.044;15.744;2022-08-01T08:13:08;7.93;;;6.27;;
2772;SDS011;1394;47.044;15.744;2022-08-01T08:15:36;6.97;;;6.37;;
2772;SDS011;1394;47.044;15.744;2022-08-01T08:18:03;7.50;;;5.57;;
2772;SDS011;1394;47.044;15.744;2022-08-01T08:20:32;7.63;;;6.57;;
2772;SDS011;1394;47.044;15.744;2022-08-01T08:22:59;7.30;;;6.60;;
2772;SDS011;1394;47.044;15.744;2022-08-01T08:25:46;7.43;;;6.83;;
2772;SDS011;1394;47.044;15.744;2022-08-01T08:28:14;6.03;;;5.50;;
2772;SDS011;1394;47.044;15.744;2022-08-01T08:30:44;5.90;;;5.40;;
2772;SDS011;1394;47.044;15.744;2022-08-01T08:33:12;6.50;;;5.90;;
2772;SDS011;1394;47.044;15.744;2022-08-01T08:35:43;6.67;;;5.80;;
2772;SDS011;1394;47.044;15.744;2022-08-01T08:38:10;6.53;;;5.40;;
2772;SDS011;1394;47.044;15.744;2022-08-01T08:40:37;7.83;;;5.60;;
2772;SDS011;1394;47.044;15.744;2022-08-01T08:43:05;6.40;;;5.90;;
2772;SDS011;1394;47.044;15.744;2022-08-01T08:45:33;6.10;;;5.50;;
2772;SDS011;1394;47.044;15.744;2022-08-01T08:48:06;6.00;;;5.50;;
2772;SDS011;1394;47.044;15.744;2022-08-01T08:50:34;7.03;;;5.60;;
2772;SDS011;1394;47.044;15.744;2022-08-01T08:53:07;5.90;;;5.23;;
2772;SDS011;1394;47.044;15.744;2022-08-01T08:55:36;6.47;;;5.43;;
2772;SDS011;1394;47.044;15.744;2022-08-01T08:58:04;5.70;;;5.20;;
2772;SDS011;1394;47.044;15.744;2022-08-01T09:00:34;5.60;;;5.10;;
2772;SDS011;1394;47.044;15.744;2022-08-01T09:03:02;6.43;;;5.30;;
2772;SDS011;1394;47.044;15.744;2022-08-01T09:05:29;18.23;;;15.90;;
2772;SDS011;1394;47.044;15.744;2022-08-01T09:07:56;6.60;;;6.00;;
2772;SDS011;1394;47.044;15.744;2022-08-01T09:10:27;6.77;;;6.10;;
2772;SDS011;1394;47.044;15.744;2022-08-01T09:13:05;7.27;;;6.20;;
2772;SDS011;1394;47.044;15.744;2022-08-01T09:15:42;7.30;;;6.70;;
2772;SDS011;1394;47.044;15.744;2022-08-01T09:18:25;6.17;;;5.53;;
2772;SDS011;1394;47.044;15.744;2022-08-01T09:21:00;6.00;;;5.40;;
2772;SDS011;1394;47.044;15.744;2022-08-01T09:23:35;6.67;;;5.20;;
2772;SDS011;1394;47.044;15.744;2022-08-01T09:26:06;6.40;;;4.93;;
2772;SDS011;1394;47.044;15.744;2022-08-01T09:28:33;6.63;;;5.50;;
2772;SDS011;1394;47.044;15.744;2022-08-01T09:31:05;5.90;;;5.40;;
2772;SDS011;1394;47.044;15.744;2022-08-01T09:33:46;8.50;;;5.13;;
2772;SDS011;1394;47.044;15.744;2022-08-01T09:36:13;10.30;;;5.20;;
2772;SDS011;1394;47.044;15.744;2022-08-01T09:38:40;6.10;;;4.83;;
2772;SDS011;1394;47.044;15.744;2022-08-01T09:41:09;5.30;;;4.80;;
2772;SDS011;1394;47.044;15.744;2022-08-01T09:43:37;6.83;;;5.03;;
2772;SDS011;1394;47.044;15.744;2022-08-01T09:46:05;6.40;;;5.40;;
2772;SDS011;1394;47.044;15.744;2022-08-01T09:48:36;5.77;;;4.90;;
2772;SDS011;1394;47.044;15.744;2022-08-01T09:51:04;5.37;;;4.87;;
2772;SDS011;1394;47.044;15.744;2022-08-01T09:53:42;4.90;;;4.40;;
2772;SDS011;1394;47.044;15.744;2022-08-01T09:56:11;5.37;;;4.80;;
2772;SDS011;1394;47.044;15.744;2022-08-01T09:58:49;5.47;;;4.13;;
2772;SDS011;1394;47.044;15.744;2022-08-01T10:01:16;4.60;;;4.20;;
2772;SDS011;1394;47.044;15.744;2022-08-01T10:03:43;4.27;;;3.83;;
2772;SDS011;1394;47.044;15.744;2022-08-01T10:06:20;4.70;;;4.30;;
2772;SDS011;1394;47.044;15.744;2022-08-01T10:08:48;3.83;;;3.53;;
2772;SDS011;1394;47.044;15.744;2022-08-01T10:11:17;4.20;;;3.80;;
2772;SDS011;1394;47.044;15.744;2022-08-01T10:13:46;4.13;;;3.50;;
2772;SDS011;1394;47.044;15.744;2022-08-01T10:16:14;4.20;;;3.80;;
2772;SDS011;1394;47.044;15.744;2022-08-01T10:18:41;4.00;;;3.60;;
2772;SDS011;1394;47.044;15.744;2022-08-01T10:21:08;4.50;;;3.60;;
2772;SDS011;1394;47.044;15.744;2022-08-01T10:23:37;3.77;;;3.20;;
2772;SDS011;1394;47.044;15.744;2022-08-01T10:26:05;3.73;;;3.33;;
2772;SDS011;1394;47.044;15.744;2022-08-01T10:28:38;4.30;;;3.10;;
2772;SDS011;1394;47.044;15.744;2022-08-01T10:31:06;3.87;;;3.20;;
2772;SDS011;1394;47.044;15.744;2022-08-01T10:33:34;3.60;;;3.30;;
2772;SDS011;1394;47.044;15.744;2022-08-01T10:36:07;4.17;;;3.30;;
2772;SDS011;1394;47.044;15.744;2022-08-01T10:38:35;4.30;;;3.30;;
2772;SDS011;1394;47.044;15.744;2022-08-01T10:41:02;3.30;;;2.97;;
2772;SDS011;1394;47.044;15.744;2022-08-01T10:43:30;3.10;;;2.80;;
2772;SDS011;1394;47.044;15.744;2022-08-01T10:45:59;3.53;;;2.90;;
2772;SDS011;1394;47.044;15.744;2022-08-01T10:48:29;3.17;;;2.87;;
2772;SDS011;1394;47.044;15.744;2022-08-01T10:51:02;3.50;;;3.10;;
2772;SDS011;1394;47.044;15.744;2022-08-01T10:53:30;3.70;;;3.40;;
2772;SDS011;1394;47.044;15.744;2022-08-01T10:55:59;7.30;;;6.60;;
2772;SDS011;1394;47.044;15.744;2022-08-01T10:58:28;4.20;;;3.80;;
2772;SDS011;1394;47.044;15.744;2022-08-01T11:03:55;4.60;;;4.20;;
2772;SDS011;1394;47.044;15.744;2022-08-01T11:06:24;3.63;;;2.53;;
2772;SDS011;1394;47.044;15.744;2022-08-01T11:08:52;3.90;;;2.60;;
2772;SDS011;1394;47.044;15.744;2022-08-01T11:11:20;6.40;;;2.77;;
2772;SDS011;1394;47.044;15.744;2022-08-01T11:14:01;3.00;;;2.63;;
2772;SDS011;1394;47.044;15.744;2022-08-01T11:16:33;2.80;;;2.30;;
2772;SDS011;1394;47.044;15.744;2022-08-01T11:19:03;2.47;;;2.27;;
2772;SDS011;1394;47.044;15.744;2022-08-01T11:24:21;2.53;;;1.80;;
2772;SDS011;1394;47.044;15.744;2022-08-01T11:27:18;2.87;;;2.00;;
2772;SDS011;1394;47.044;15.744;2022-08-01T11:30:00;2.50;;;1.80;;
2772;SDS011;1394;47.044;15.744;2022-08-01T11:32:48;2.50;;;2.20;;
2772;SDS011;1394;47.044;15.744;2022-08-01T11:35:17;2.97;;;2.27;;
2772;SDS011;1394;47.044;15.744;2022-08-01T11:37:45;4.60;;;1.90;;
2772;SDS011;1394;47.044;15.744;2022-08-01T11:40:18;3.17;;;1.93;;
2772;SDS011;1394;47.044;15.744;2022-08-01T11:42:45;3.80;;;2.10;;
2772;SDS011;1394;47.044;15.744;2022-08-01T11:45:12;2.53;;;2.10;;
2772;SDS011;1394;47.044;15.744;2022-08-01T11:47:43;4.53;;;2.60;;
2772;SDS011;1394;47.044;15.744;2022-08-01T11:50:31;3.53;;;2.70;;
2772;SDS011;1394;47.044;15.744;2022-08-01T11:52:59;4.10;;;3.00;;
2772;SDS011;1394;47.044;15.744;2022-08-01T11:55:26;3.07;;;2.40;;
2772;SDS011;1394;47.044;15.744;2022-08-01T11:57:58;3.10;;;2.50;;
2772;SDS011;1394;47.044;15.744;2022-08-01T12:00:26;3.67;;;2.43;;
2772;SDS011;1394;47.044;15.744;2022-08-01T12:02:56;3.27;;;2.47;;
2772;SDS011;1394;47.044;15.744;2022-08-01T12:05:24;4.83;;;2.40;;
2772;SDS011;1394;47.044;15.744;2022-08-01T12:07:55;4.17;;;2.53;;
2772;SDS011;1394;47.044;15.744;2022-08-01T12:10:24;2.70;;;1.97;;
2772;SDS011;1394;47.044;15.744;2022-08-01T12:12:52;3.77;;;2.50;;
2772;SDS011;1394;47.044;15.744;2022-08-01T12:15:20;2.80;;;2.33;;
2772;SDS011;1394;47.044;15.744;2022-08-01T12:17:54;3.13;;;2.20;;
2772;SDS011;1394;47.044;15.744;2022-08-01T12:20:23;4.60;;;2.80;;
2772;SDS011;1394;47.044;15.744;2022-08-01T12:22:52;4.17;;;2.40;;
2772;SDS011;1394;47.044;15.744;2022-08-01T12:25:24;2.87;;;2.37;;
2772;SDS011;1394;47.044;15.744;2022-08-01T12:27:52;2.50;;;2.10;;
2772;SDS011;1394;47.044;15.744;2022-08-01T12:30:21;2.67;;;2.10;;
2772;SDS011;1394;47.044;15.744;2022-08-01T12:32:52;2.77;;;2.10;;
2772;SDS011;1394;47.044;15.744;2022-08-01T12:35:20;1.90;;;1.60;;
2772;SDS011;1394;47.044;15.744;2022-08-01T12:37:48;3.40;;;1.87;;
2772;SDS011;1394;47.044;15.744;2022-08-01T12:40:16;3.97;;;1.77;;
2772;SDS011;1394;47.044;15.744;2022-08-01T12:42:46;3.70;;;1.50;;
2772;SDS011;1394;47.044;15.744;2022-08-01T12:45:15;1.70;;;1.30;;
2772;SDS011;1394;47.044;15.744;2022-08-01T12:47:43;5.03;;;2.47;;
2772;SDS011;1394;47.044;15.744;2022-08-01T12:50:12;3.20;;;1.50;;
2772;SDS011;1394;47.044;15.744;2022-08-01T12:52:40;4.60;;;1.50;;
2772;SDS011;1394;47.044;15.744;2022-08-01T12:55:08;2.97;;;1.20;;
2772;SDS011;1394;47.044;15.744;2022-08-01T12:57:37;8.13;;;1.70;;
2772;SDS011;1394;47.044;15.744;2022-08-01T13:00:15;2.13;;;1.37;;
2772;SDS011;1394;47.044;15.744;2022-08-01T13:02:43;2.90;;;1.60;;
2772;SDS011;1394;47.044;15.744;2022-08-01T13:05:11;3.20;;;1.50;;
2772;SDS011;1394;47.044;15.744;2022-08-01T13:07:39;3.03;;;1.57;;
2772;SDS011;1394;47.044;15.744;2022-08-01T13:10:10;3.10;;;1.40;;
2772;SDS011;1394;47.044;15.744;2022-08-01T13:12:42;2.30;;;1.30;;
2772;SDS011;1394;47.044;15.744;2022-08-01T13:15:23;2.60;;;1.40;;
2772;SDS011;1394;47.044;15.744;2022-08-01T13:17:51;4.23;;;1.47;;
2772;SDS011;1394;47.044;15.744;2022-08-01T13:20:23;3.00;;;1.57;;
2772;SDS011;1394;47.044;15.744;2022-08-01T13:22:54;2.37;;;1.27;;
2772;SDS011;1394;47.044;15.744;2022-08-01T13:25:21;4.17;;;2.23;;
2772;SDS011;1394;47.044;15.744;2022-08-01T13:30:35;2.73;;;1.90;;
2772;SDS011;1394;47.044;15.744;2022-08-01T13:33:03;4.53;;;2.00;;
2772;SDS011;1394;47.044;15.744;2022-08-01T13:35:33;2.70;;;1.50;;
2772;SDS011;1394;47.044;15.744;2022-08-01T13:38:01;2.20;;;1.60;;
2772;SDS011;1394;47.044;15.744;2022-08-01T13:40:28;3.00;;;1.73;;
2772;SDS011;1394;47.044;15.744;2022-08-01T13:42:55;3.47;;;1.73;;
2772;SDS011;1394;47.044;15.744;2022-08-01T13:45:23;4.07;;;1.90;;
2772;SDS011;1394;47.044;15.744;2022-08-01T13:47:51;2.50;;;1.73;;
2772;SDS011;1394;47.044;15.744;2022-08-01T13:50:20;4.23;;;1.70;;
2772;SDS011;1394;47.044;15.744;2022-08-01T13:52:47;2.23;;;1.77;;
2772;SDS011;1394;47.044;15.744;2022-08-01T13:55:14;2.70;;;2.00;;
2772;SDS011;1394;47.044;15.744;2022-08-01T13:57:41;3.67;;;1.70;;
2772;SDS011;1394;47.044;15.744;2022-08-01T14:00:09;3.93;;;1.77;;
2772;SDS011;1394;47.044;15.744;2022-08-01T14:02:36;3.67;;;2.43;;
2772;SDS011;1394;47.044;15.744;2022-08-01T14:05:08;6.10;;;2.17;;
2772;SDS011;1394;47.044;15.744;2022-08-01T14:07:36;4.60;;;1.87;;
2772;SDS011;1394;47.044;15.744;2022-08-01T14:10:03;8.63;;;2.00;;
2772;SDS011;1394;47.044;15.744;2022-08-01T14:12:32;2.53;;;1.63;;
2772;SDS011;1394;47.044;15.744;2022-08-01T14:15:05;3.80;;;2.43;;
2772;SDS011;1394;47.044;15.744;2022-08-01T14:17:33;4.33;;;2.63;;
2772;SDS011;1394;47.044;15.744;2022-08-01T14:20:00;2.83;;;2.27;;
2772;SDS011;1394;47.044;15.744;2022-08-01T14:22:31;5.03;;;2.43;;
2772;SDS011;1394;47.044;15.744;2022-08-01T14:24:58;3.40;;;2.57;;
2772;SDS011;1394;47.044;15.744;2022-08-01T14:27:26;4.93;;;2.97;;
2772;SDS011;1394;47.044;15.744;2022-08-01T14:29:56;2.90;;;2.50;;
2772;SDS011;1394;47.044;15.744;2022-08-01T14:32:23;4.30;;;3.03;;
2772;SDS011;1394;47.044;15.744;2022-08-01T14:34:55;3.67;;;2.70;;
2772;SDS011;1394;47.044;15.744;2022-08-01T14:37:22;3.50;;;3.20;;
2772;SDS011;1394;47.044;15.744;2022-08-01T14:39:52;3.67;;;2.80;;
2772;SDS011;1394;47.044;15.744;2022-08-01T14:42:20;3.23;;;2.93;;
2772;SDS011;1394;47.044;15.744;2022-08-01T14:44:47;3.30;;;3.00;;
2772;SDS011;1394;47.044;15.744;2022-08-01T14:47:14;5.00;;;3.23;;
2772;SDS011;1394;47.044;15.744;2022-08-01T14:49:42;4.67;;;3.27;;
2772;SDS011;1394;47.044;15.744;2022-08-01T14:52:09;5.27;;;3.33;;
2772;SDS011;1394;47.044;15.744;2022-08-01T14:54:36;3.57;;;3.27;;
2772;SDS011;1394;47.044;15.744;2022-08-01T14:57:05;4.60;;;3.40;;
2772;SDS011;1394;47.044;15.744;2022-08-01T14:59:38;4.07;;;2.87;;
2772;SDS011;1394;47.044;15.744;2022-08-01T15:02:05;4.40;;;3.10;;
2772;SDS011;1394;47.044;15.744;2022-08-01T15:04:35;4.10;;;2.90;;
2772;SDS011;1394;47.044;15.744;2022-08-01T15:07:03;3.03;;;2.63;;
2772;SDS011;1394;47.044;15.744;2022-08-01T15:09:30;3.37;;;2.73;;
2772;SDS011;1394;47.044;15.744;2022-08-01T15:11:58;2.60;;;2.40;;
2772;SDS011;1394;47.044;15.744;2022-08-01T15:14:26;5.67;;;2.90;;
2772;SDS011;1394;47.044;15.744;2022-08-01T15:17:11;2.90;;;2.60;;
2772;SDS011;1394;47.044;15.744;2022-08-01T15:19:38;3.27;;;2.97;;
2772;SDS011;1394;47.044;15.744;2022-08-01T15:22:06;3.43;;;3.10;;